sensor_id;sensor_type;location;lat;lon;timestamp;P1;durP1;ratioP1;P2;durP2;ratioP2
3309;SDS011;1667;53.238;10.394;2022-11-15T00:00:02;18.93;;;11.00;;
3309;SDS011;1667;53.238;10.394;2022-11-15T00:05:19;19.70;;;12.17;;
3309;SDS011;1667;53.238;10.394;2022-11-15T00:10:35;18.03;;;11.83;;
3309;SDS011;1667;53.238;10.394;2022-11-15T00:15:55;20.47;;;12.23;;
3309;SDS011;1667;53.238;10.394;2022-11-15T00:21:13;21.20;;;13.30;;
3309;SDS011;1667;53.238;10.394;2022-11-15T00:26:30;17.03;;;10.37;;
3309;SDS011;1667;53.238;10.394;2022-11-15T00:31:48;20.03;;;11.37;;
3309;SDS011;1667;53.238;10.394;2022-11-15T00:37:05;20.40;;;12.57;;
3309;SDS011;1667;53.238;10.394;2022-11-15T00:42:22;19.77;;;12.90;;
3309;SDS011;1667;53.238;10.394;2022-11-15T00:47:40;19.10;;;10.70;;
3309;SDS011;1667;53.238;10.394;2022-11-15T00:52:59;20.53;;;11.27;;
3309;SDS011;1667;53.238;10.394;2022-11-15T00:58:16;15.43;;;10.83;;
3309;SDS011;1667;53.238;10.394;2022-11-15T01:03:33;20.07;;;11.57;;
3309;SDS011;1667;53.238;10.394;2022-11-15T01:08:50;22.10;;;11.67;;
3309;SDS011;1667;53.238;10.394;2022-11-15T01:14:06;21.57;;;11.50;;
3309;SDS011;1667;53.238;10.394;2022-11-15T01:19:24;20.53;;;11.83;;
3309;SDS011;1667;53.238;10.394;2022-11-15T01:24:41;17.70;;;11.00;;
3309;SDS011;1667;53.238;10.394;2022-11-15T01:29:58;22.30;;;13.13;;
3309;SDS011;1667;53.238;10.394;2022-11-15T01:35:16;16.00;;;9.87;;
3309;SDS011;1667;53.238;10.394;2022-11-15T01:40:32;19.03;;;10.20;;
3309;SDS011;1667;53.238;10.394;2022-11-15T01:45:49;19.23;;;12.03;;
3309;SDS011;1667;53.238;10.394;2022-11-15T01:51:11;19.20;;;10.10;;
3309;SDS011;1667;53.238;10.394;2022-11-15T01:56:30;16.83;;;11.43;;
3309;SDS011;1667;53.238;10.394;2022-11-15T02:01:52;17.07;;;10.67;;
3309;SDS011;1667;53.238;10.394;2022-11-15T02:07:10;17.90;;;10.37;;
3309;SDS011;1667;53.238;10.394;2022-11-15T02:12:29;18.83;;;11.70;;
3309;SDS011;1667;53.238;10.394;2022-11-15T02:17:53;14.20;;;9.53;;
3309;SDS011;1667;53.238;10.394;2022-11-15T02:23:31;15.57;;;10.13;;
3309;SDS011;1667;53.238;10.394;2022-11-15T02:29:09;21.87;;;12.50;;
3309;SDS011;1667;53.238;10.394;2022-11-15T02:34:33;21.97;;;11.67;;
3309;SDS011;1667;53.238;10.394;2022-11-15T02:39:59;18.40;;;10.03;;
3309;SDS011;1667;53.238;10.394;2022-11-15T02:45:24;16.43;;;9.40;;
3309;SDS011;1667;53.238;10.394;2022-11-15T02:50:45;20.07;;;11.80;;
3309;SDS011;1667;53.238;10.394;2022-11-15T02:56:01;23.37;;;11.97;;
3309;SDS011;1667;53.238;10.394;2022-11-15T03:01:21;17.00;;;10.10;;
3309;SDS011;1667;53.238;10.394;2022-11-15T03:06:55;17.60;;;11.53;;
3309;SDS011;1667;53.238;10.394;2022-11-15T03:12:19;21.67;;;11.93;;
3309;SDS011;1667;53.238;10.394;2022-11-15T03:17:42;20.40;;;11.77;;
3309;SDS011;1667;53.238;10.394;2022-11-15T03:23:05;21.67;;;13.80;;
3309;SDS011;1667;53.238;10.394;2022-11-15T03:28:25;17.63;;;10.50;;
3309;SDS011;1667;53.238;10.394;2022-11-15T03:33:47;22.70;;;11.67;;
3309;SDS011;1667;53.238;10.394;2022-11-15T03:39:07;22.77;;;11.87;;
3309;SDS011;1667;53.238;10.394;2022-11-15T03:44:32;19.17;;;11.10;;
3309;SDS011;1667;53.238;10.394;2022-11-15T03:49:57;12.93;;;8.47;;
3309;SDS011;1667;53.238;10.394;2022-11-15T03:55:19;12.53;;;8.17;;
3309;SDS011;1667;53.238;10.394;2022-11-15T04:00:36;14.63;;;8.90;;
3309;SDS011;1667;53.238;10.394;2022-11-15T04:05:53;15.10;;;8.90;;
3309;SDS011;1667;53.238;10.394;2022-11-15T04:11:11;12.17;;;7.43;;
3309;SDS011;1667;53.238;10.394;2022-11-15T04:16:27;14.90;;;9.03;;
3309;SDS011;1667;53.238;10.394;2022-11-15T04:21:44;17.03;;;10.00;;
3309;SDS011;1667;53.238;10.394;2022-11-15T04:27:19;20.13;;;11.67;;
3309;SDS011;1667;53.238;10.394;2022-11-15T04:32:36;17.80;;;10.73;;
3309;SDS011;1667;53.238;10.394;2022-11-15T04:37:52;14.03;;;7.80;;
3309;SDS011;1667;53.238;10.394;2022-11-15T04:43:11;12.90;;;7.60;;
3309;SDS011;1667;53.238;10.394;2022-11-15T04:48:27;21.77;;;12.50;;
3309;SDS011;1667;53.238;10.394;2022-11-15T04:53:44;20.10;;;11.63;;
3309;SDS011;1667;53.238;10.394;2022-11-15T04:59:02;16.77;;;9.50;;
3309;SDS011;1667;53.238;10.394;2022-11-15T05:04:19;15.10;;;9.60;;
3309;SDS011;1667;53.238;10.394;2022-11-15T05:09:36;21.20;;;10.93;;
3309;SDS011;1667;53.238;10.394;2022-11-15T05:14:53;16.20;;;10.93;;
3309;SDS011;1667;53.238;10.394;2022-11-15T05:20:11;19.10;;;11.97;;
3309;SDS011;1667;53.238;10.394;2022-11-15T05:25:28;12.00;;;7.87;;
3309;SDS011;1667;53.238;10.394;2022-11-15T05:30:45;17.70;;;11.30;;
3309;SDS011;1667;53.238;10.394;2022-11-15T05:36:04;18.70;;;10.90;;
3309;SDS011;1667;53.238;10.394;2022-11-15T05:41:24;17.33;;;11.47;;
3309;SDS011;1667;53.238;10.394;2022-11-15T05:46:46;17.83;;;10.57;;
3309;SDS011;1667;53.238;10.394;2022-11-15T05:52:04;22.17;;;12.03;;
3309;SDS011;1667;53.238;10.394;2022-11-15T05:57:22;12.27;;;9.17;;
3309;SDS011;1667;53.238;10.394;2022-11-15T06:02:41;15.13;;;9.07;;
3309;SDS011;1667;53.238;10.394;2022-11-15T06:07:58;12.17;;;7.97;;
3309;SDS011;1667;53.238;10.394;2022-11-15T06:13:14;22.00;;;12.63;;
3309;SDS011;1667;53.238;10.394;2022-11-15T06:18:33;16.67;;;8.97;;
3309;SDS011;1667;53.238;10.394;2022-11-15T06:23:50;13.93;;;8.53;;
3309;SDS011;1667;53.238;10.394;2022-11-15T06:29:06;14.30;;;8.47;;
3309;SDS011;1667;53.238;10.394;2022-11-15T06:34:24;15.83;;;8.20;;
3309;SDS011;1667;53.238;10.394;2022-11-15T06:39:41;19.30;;;10.80;;
3309;SDS011;1667;53.238;10.394;2022-11-15T06:44:57;15.23;;;10.83;;
3309;SDS011;1667;53.238;10.394;2022-11-15T06:50:16;16.80;;;10.90;;
3309;SDS011;1667;53.238;10.394;2022-11-15T06:55:33;12.87;;;8.43;;
3309;SDS011;1667;53.238;10.394;2022-11-15T07:00:49;19.60;;;12.57;;
3309;SDS011;1667;53.238;10.394;2022-11-15T07:06:08;20.47;;;11.37;;
3309;SDS011;1667;53.238;10.394;2022-11-15T07:11:25;22.20;;;12.73;;
3309;SDS011;1667;53.238;10.394;2022-11-15T07:16:42;17.03;;;9.77;;
3309;SDS011;1667;53.238;10.394;2022-11-15T07:21:59;13.57;;;8.57;;
3309;SDS011;1667;53.238;10.394;2022-11-15T07:27:16;16.13;;;10.73;;
3309;SDS011;1667;53.238;10.394;2022-11-15T07:32:34;12.67;;;8.50;;
3309;SDS011;1667;53.238;10.394;2022-11-15T07:37:55;17.40;;;9.57;;
3309;SDS011;1667;53.238;10.394;2022-11-15T07:43:13;14.03;;;9.37;;
3309;SDS011;1667;53.238;10.394;2022-11-15T07:48:29;14.57;;;8.80;;
3309;SDS011;1667;53.238;10.394;2022-11-15T07:53:59;15.17;;;8.70;;
3309;SDS011;1667;53.238;10.394;2022-11-15T07:59:16;13.60;;;8.47;;
3309;SDS011;1667;53.238;10.394;2022-11-15T08:04:34;16.40;;;9.33;;
3309;SDS011;1667;53.238;10.394;2022-11-15T08:09:52;24.60;;;12.43;;
3309;SDS011;1667;53.238;10.394;2022-11-15T08:15:09;16.17;;;10.97;;
3309;SDS011;1667;53.238;10.394;2022-11-15T08:20:26;10.10;;;6.60;;
3309;SDS011;1667;53.238;10.394;2022-11-15T08:25:46;10.50;;;7.37;;
3309;SDS011;1667;53.238;10.394;2022-11-15T08:31:02;20.80;;;8.80;;
3309;SDS011;1667;53.238;10.394;2022-11-15T08:36:20;18.67;;;11.40;;
3309;SDS011;1667;53.238;10.394;2022-11-15T08:41:38;14.13;;;8.07;;
3309;SDS011;1667;53.238;10.394;2022-11-15T08:46:55;12.80;;;7.43;;
3309;SDS011;1667;53.238;10.394;2022-11-15T08:52:11;13.57;;;9.33;;
3309;SDS011;1667;53.238;10.394;2022-11-15T08:57:30;10.97;;;7.20;;
3309;SDS011;1667;53.238;10.394;2022-11-15T09:02:47;15.93;;;8.60;;
3309;SDS011;1667;53.238;10.394;2022-11-15T09:08:04;11.83;;;7.20;;
3309;SDS011;1667;53.238;10.394;2022-11-15T09:13:42;17.23;;;10.30;;
3309;SDS011;1667;53.238;10.394;2022-11-15T09:18:59;17.70;;;10.60;;
3309;SDS011;1667;53.238;10.394;2022-11-15T09:24:16;16.10;;;9.70;;
3309;SDS011;1667;53.238;10.394;2022-11-15T09:29:35;12.00;;;8.10;;
3309;SDS011;1667;53.238;10.394;2022-11-15T09:34:51;14.10;;;9.20;;
3309;SDS011;1667;53.238;10.394;2022-11-15T09:40:08;10.73;;;7.83;;
3309;SDS011;1667;53.238;10.394;2022-11-15T09:45:33;11.77;;;8.63;;
3309;SDS011;1667;53.238;10.394;2022-11-15T09:50:54;15.30;;;9.27;;
3309;SDS011;1667;53.238;10.394;2022-11-15T09:55:58;18.20;;;10.50;;
3309;SDS011;1667;53.238;10.394;2022-11-15T10:00:59;7.87;;;5.83;;
3309;SDS011;1667;53.238;10.394;2022-11-15T10:06:04;12.97;;;8.90;;
3309;SDS011;1667;53.238;10.394;2022-11-15T10:11:04;11.80;;;7.40;;
3309;SDS011;1667;53.238;10.394;2022-11-15T10:16:35;7.27;;;5.13;;
3309;SDS011;1667;53.238;10.394;2022-11-15T10:22:04;5.30;;;4.80;;
3309;SDS011;1667;53.238;10.394;2022-11-15T10:27:13;8.43;;;6.00;;
3309;SDS011;1667;53.238;10.394;2022-11-15T10:32:14;9.47;;;5.83;;
3309;SDS011;1667;53.238;10.394;2022-11-15T10:37:14;8.00;;;6.33;;
3309;SDS011;1667;53.238;10.394;2022-11-15T10:42:25;9.20;;;7.67;;
3309;SDS011;1667;53.238;10.394;2022-11-15T10:47:27;12.03;;;7.20;;
3309;SDS011;1667;53.238;10.394;2022-11-15T10:52:34;11.80;;;8.00;;
3309;SDS011;1667;53.238;10.394;2022-11-15T10:57:36;12.03;;;6.40;;
3309;SDS011;1667;53.238;10.394;2022-11-15T11:02:37;12.30;;;6.23;;
3309;SDS011;1667;53.238;10.394;2022-11-15T11:07:36;9.43;;;7.30;;
3309;SDS011;1667;53.238;10.394;2022-11-15T11:12:34;7.23;;;5.20;;
3309;SDS011;1667;53.238;10.394;2022-11-15T11:17:40;7.17;;;5.97;;
3309;SDS011;1667;53.238;10.394;2022-11-15T11:22:53;7.23;;;5.23;;
3309;SDS011;1667;53.238;10.394;2022-11-15T11:28:05;10.40;;;6.47;;
3309;SDS011;1667;53.238;10.394;2022-11-15T11:33:20;8.33;;;5.40;;
3309;SDS011;1667;53.238;10.394;2022-11-15T11:38:41;7.10;;;6.20;;
3309;SDS011;1667;53.238;10.394;2022-11-15T11:43:54;11.63;;;7.03;;
3309;SDS011;1667;53.238;10.394;2022-11-15T11:49:02;7.77;;;5.67;;
3309;SDS011;1667;53.238;10.394;2022-11-15T11:54:09;6.20;;;5.33;;
3309;SDS011;1667;53.238;10.394;2022-11-15T11:59:15;8.70;;;7.00;;
3309;SDS011;1667;53.238;10.394;2022-11-15T12:04:20;10.37;;;7.03;;
3309;SDS011;1667;53.238;10.394;2022-11-15T12:09:26;6.57;;;5.17;;
3309;SDS011;1667;53.238;10.394;2022-11-15T12:14:36;11.57;;;6.80;;
3309;SDS011;1667;53.238;10.394;2022-11-15T12:19:41;9.80;;;6.23;;
3309;SDS011;1667;53.238;10.394;2022-11-15T12:24:41;7.93;;;5.87;;
3309;SDS011;1667;53.238;10.394;2022-11-15T12:29:43;7.90;;;5.73;;
3309;SDS011;1667;53.238;10.394;2022-11-15T12:34:46;8.90;;;5.90;;
3309;SDS011;1667;53.238;10.394;2022-11-15T12:40:16;5.47;;;4.87;;
3309;SDS011;1667;53.238;10.394;2022-11-15T12:45:24;5.20;;;4.67;;
3309;SDS011;1667;53.238;10.394;2022-11-15T13:01:07;6.23;;;5.10;;
3309;SDS011;1667;53.238;10.394;2022-11-15T13:06:07;6.50;;;5.00;;
3309;SDS011;1667;53.238;10.394;2022-11-15T13:11:50;8.37;;;6.50;;
3309;SDS011;1667;53.238;10.394;2022-11-15T13:16:49;6.70;;;5.63;;
3309;SDS011;1667;53.238;10.394;2022-11-15T13:21:55;8.13;;;5.57;;
3309;SDS011;1667;53.238;10.394;2022-11-15T13:27:14;7.10;;;4.80;;
3309;SDS011;1667;53.238;10.394;2022-11-15T13:32:15;5.40;;;4.60;;
3309;SDS011;1667;53.238;10.394;2022-11-15T13:37:27;6.23;;;4.60;;
3309;SDS011;1667;53.238;10.394;2022-11-15T13:42:28;7.20;;;4.20;;
3309;SDS011;1667;53.238;10.394;2022-11-15T13:47:27;6.37;;;5.07;;
3309;SDS011;1667;53.238;10.394;2022-11-15T13:52:27;7.90;;;6.43;;
3309;SDS011;1667;53.238;10.394;2022-11-15T13:57:30;7.70;;;5.40;;
3309;SDS011;1667;53.238;10.394;2022-11-15T14:02:37;5.77;;;4.50;;
3309;SDS011;1667;53.238;10.394;2022-11-15T14:07:35;6.57;;;4.83;;
3309;SDS011;1667;53.238;10.394;2022-11-15T14:12:49;5.57;;;5.07;;
3309;SDS011;1667;53.238;10.394;2022-11-15T14:17:48;5.27;;;4.37;;
3309;SDS011;1667;53.238;10.394;2022-11-15T14:22:51;8.10;;;5.47;;
3309;SDS011;1667;53.238;10.394;2022-11-15T14:28:14;6.63;;;4.97;;
3309;SDS011;1667;53.238;10.394;2022-11-15T14:33:17;7.00;;;5.47;;
3309;SDS011;1667;53.238;10.394;2022-11-15T14:38:20;9.23;;;5.77;;
3309;SDS011;1667;53.238;10.394;2022-11-15T14:43:20;11.57;;;6.50;;
3309;SDS011;1667;53.238;10.394;2022-11-15T14:54:17;5.27;;;4.60;;
3309;SDS011;1667;53.238;10.394;2022-11-15T14:59:17;4.03;;;3.63;;
3309;SDS011;1667;53.238;10.394;2022-11-15T15:04:15;6.20;;;4.90;;
3309;SDS011;1667;53.238;10.394;2022-11-15T15:09:13;6.53;;;4.93;;
3309;SDS011;1667;53.238;10.394;2022-11-15T15:14:11;6.73;;;5.30;;
3309;SDS011;1667;53.238;10.394;2022-11-15T15:19:13;6.70;;;4.60;;
3309;SDS011;1667;53.238;10.394;2022-11-15T15:24:11;9.23;;;4.20;;
3309;SDS011;1667;53.238;10.394;2022-11-15T15:35:23;6.73;;;4.60;;
3309;SDS011;1667;53.238;10.394;2022-11-15T15:40:25;8.13;;;4.60;;
3309;SDS011;1667;53.238;10.394;2022-11-15T15:45:26;6.47;;;4.97;;
3309;SDS011;1667;53.238;10.394;2022-11-15T15:50:27;4.97;;;4.47;;
3309;SDS011;1667;53.238;10.394;2022-11-15T15:55:29;9.20;;;6.70;;
3309;SDS011;1667;53.238;10.394;2022-11-15T16:00:27;5.17;;;3.70;;
3309;SDS011;1667;53.238;10.394;2022-11-15T16:05:30;8.03;;;5.77;;
3309;SDS011;1667;53.238;10.394;2022-11-15T16:10:29;4.33;;;3.60;;
3309;SDS011;1667;53.238;10.394;2022-11-15T16:15:29;7.00;;;4.80;;
3309;SDS011;1667;53.238;10.394;2022-11-15T16:20:31;8.00;;;6.53;;
3309;SDS011;1667;53.238;10.394;2022-11-15T16:25:32;6.93;;;5.53;;
3309;SDS011;1667;53.238;10.394;2022-11-15T16:30:34;9.90;;;6.97;;
3309;SDS011;1667;53.238;10.394;2022-11-15T16:35:34;14.90;;;8.07;;
3309;SDS011;1667;53.238;10.394;2022-11-15T16:40:32;10.60;;;5.90;;
3309;SDS011;1667;53.238;10.394;2022-11-15T16:52:27;6.50;;;5.57;;
3309;SDS011;1667;53.238;10.394;2022-11-15T16:57:25;8.53;;;6.43;;
3309;SDS011;1667;53.238;10.394;2022-11-15T17:02:23;9.83;;;5.57;;
3309;SDS011;1667;53.238;10.394;2022-11-15T17:07:21;8.70;;;6.60;;
3309;SDS011;1667;53.238;10.394;2022-11-15T17:12:21;5.03;;;4.30;;
3309;SDS011;1667;53.238;10.394;2022-11-15T17:17:20;5.33;;;4.13;;
3309;SDS011;1667;53.238;10.394;2022-11-15T17:22:18;10.67;;;6.10;;
3309;SDS011;1667;53.238;10.394;2022-11-15T17:27:16;7.00;;;5.20;;
3309;SDS011;1667;53.238;10.394;2022-11-15T17:32:18;7.20;;;4.67;;
3309;SDS011;1667;53.238;10.394;2022-11-15T17:37:16;8.97;;;5.10;;
3309;SDS011;1667;53.238;10.394;2022-11-15T17:42:14;5.97;;;4.80;;
3309;SDS011;1667;53.238;10.394;2022-11-15T17:47:12;6.83;;;5.27;;
3309;SDS011;1667;53.238;10.394;2022-11-15T17:52:12;8.33;;;3.93;;
3309;SDS011;1667;53.238;10.394;2022-11-15T18:03:59;6.17;;;4.70;;
3309;SDS011;1667;53.238;10.394;2022-11-15T18:08:59;6.50;;;4.27;;
3309;SDS011;1667;53.238;10.394;2022-11-15T18:13:59;7.60;;;6.20;;
3309;SDS011;1667;53.238;10.394;2022-11-15T18:18:59;7.20;;;5.30;;
3309;SDS011;1667;53.238;10.394;2022-11-15T18:23:58;8.73;;;4.73;;
3309;SDS011;1667;53.238;10.394;2022-11-15T18:35:58;7.33;;;4.57;;
3309;SDS011;1667;53.238;10.394;2022-11-15T18:41:03;6.97;;;5.23;;
3309;SDS011;1667;53.238;10.394;2022-11-15T18:46:03;11.63;;;5.53;;
3309;SDS011;1667;53.238;10.394;2022-11-15T18:51:02;6.80;;;4.90;;
3309;SDS011;1667;53.238;10.394;2022-11-15T18:56:04;8.37;;;5.97;;
3309;SDS011;1667;53.238;10.394;2022-11-15T19:01:04;6.67;;;5.40;;
3309;SDS011;1667;53.238;10.394;2022-11-15T19:06:04;7.23;;;5.43;;
3309;SDS011;1667;53.238;10.394;2022-11-15T19:11:05;10.73;;;6.07;;
3309;SDS011;1667;53.238;10.394;2022-11-15T19:16:05;10.13;;;5.77;;
3309;SDS011;1667;53.238;10.394;2022-11-15T19:21:05;8.67;;;5.73;;
3309;SDS011;1667;53.238;10.394;2022-11-15T19:26:12;5.87;;;5.07;;
3309;SDS011;1667;53.238;10.394;2022-11-15T19:31:11;9.83;;;5.20;;
3309;SDS011;1667;53.238;10.394;2022-11-15T19:36:11;9.70;;;5.67;;
3309;SDS011;1667;53.238;10.394;2022-11-15T19:41:12;8.90;;;5.43;;
3309;SDS011;1667;53.238;10.394;2022-11-15T19:46:11;7.83;;;5.70;;
3309;SDS011;1667;53.238;10.394;2022-11-15T19:51:10;5.67;;;4.80;;
3309;SDS011;1667;53.238;10.394;2022-11-15T19:56:10;9.97;;;6.33;;
3309;SDS011;1667;53.238;10.394;2022-11-15T20:01:12;10.20;;;5.60;;
3309;SDS011;1667;53.238;10.394;2022-11-15T20:06:15;11.60;;;6.90;;
3309;SDS011;1667;53.238;10.394;2022-11-15T20:11:15;11.93;;;5.77;;
3309;SDS011;1667;53.238;10.394;2022-11-15T20:16:15;11.20;;;6.77;;
3309;SDS011;1667;53.238;10.394;2022-11-15T20:21:14;8.07;;;5.43;;
3309;SDS011;1667;53.238;10.394;2022-11-15T20:26:13;10.33;;;6.67;;
3309;SDS011;1667;53.238;10.394;2022-11-15T20:36:39;11.60;;;5.80;;
3309;SDS011;1667;53.238;10.394;2022-11-15T20:41:39;13.07;;;7.10;;
3309;SDS011;1667;53.238;10.394;2022-11-15T20:46:37;10.27;;;6.60;;
3309;SDS011;1667;53.238;10.394;2022-11-15T20:51:35;8.70;;;6.37;;
3309;SDS011;1667;53.238;10.394;2022-11-15T20:56:33;10.60;;;6.67;;
3309;SDS011;1667;53.238;10.394;2022-11-15T21:01:33;14.47;;;7.50;;
3309;SDS011;1667;53.238;10.394;2022-11-15T21:06:31;8.10;;;6.10;;
3309;SDS011;1667;53.238;10.394;2022-11-15T21:11:29;9.30;;;6.00;;
3309;SDS011;1667;53.238;10.394;2022-11-15T21:16:46;9.13;;;6.33;;
3309;SDS011;1667;53.238;10.394;2022-11-15T21:21:44;9.40;;;5.90;;
3309;SDS011;1667;53.238;10.394;2022-11-15T21:26:42;8.63;;;5.27;;
3309;SDS011;1667;53.238;10.394;2022-11-15T21:31:40;8.50;;;5.97;;
3309;SDS011;1667;53.238;10.394;2022-11-15T21:36:40;7.80;;;5.77;;
3309;SDS011;1667;53.238;10.394;2022-11-15T21:41:38;12.80;;;7.60;;
3309;SDS011;1667;53.238;10.394;2022-11-15T21:46:36;9.63;;;6.73;;
3309;SDS011;1667;53.238;10.394;2022-11-15T21:51:34;10.20;;;6.27;;
3309;SDS011;1667;53.238;10.394;2022-11-15T21:56:34;13.23;;;8.00;;
3309;SDS011;1667;53.238;10.394;2022-11-15T22:01:32;14.93;;;8.17;;
3309;SDS011;1667;53.238;10.394;2022-11-15T22:06:47;10.07;;;7.70;;
3309;SDS011;1667;53.238;10.394;2022-11-15T22:11:47;10.93;;;6.63;;
3309;SDS011;1667;53.238;10.394;2022-11-15T22:16:45;13.93;;;7.97;;
3309;SDS011;1667;53.238;10.394;2022-11-15T22:21:43;14.13;;;10.00;;
3309;SDS011;1667;53.238;10.394;2022-11-15T22:26:42;13.70;;;10.40;;
3309;SDS011;1667;53.238;10.394;2022-11-15T22:31:41;12.80;;;8.40;;
3309;SDS011;1667;53.238;10.394;2022-11-15T22:36:40;14.63;;;10.40;;
3309;SDS011;1667;53.238;10.394;2022-11-15T22:42:00;18.23;;;10.90;;
3309;SDS011;1667;53.238;10.394;2022-11-15T22:47:00;18.80;;;11.50;;
3309;SDS011;1667;53.238;10.394;2022-11-15T22:51:58;13.27;;;9.20;;
3309;SDS011;1667;53.238;10.394;2022-11-15T22:56:57;19.13;;;10.73;;
3309;SDS011;1667;53.238;10.394;2022-11-15T23:01:55;16.20;;;9.60;;
3309;SDS011;1667;53.238;10.394;2022-11-15T23:06:55;18.50;;;10.30;;
3309;SDS011;1667;53.238;10.394;2022-11-15T23:11:53;23.70;;;12.80;;
3309;SDS011;1667;53.238;10.394;2022-11-15T23:17:09;18.20;;;12.17;;
3309;SDS011;1667;53.238;10.394;2022-11-15T23:22:08;24.03;;;14.03;;
3309;SDS011;1667;53.238;10.394;2022-11-15T23:27:24;16.10;;;9.80;;
3309;SDS011;1667;53.238;10.394;2022-11-15T23:32:23;21.70;;;12.33;;
3309;SDS011;1667;53.238;10.394;2022-11-15T23:43:34;21.87;;;13.70;;
3309;SDS011;1667;53.238;10.394;2022-11-15T23:48:32;22.27;;;13.20;;
3309;SDS011;1667;53.238;10.394;2022-11-15T23:53:31;18.03;;;12.00;;
3309;SDS011;1667;53.238;10.394;2022-11-15T23:58:29;15.97;;;10.60;;
